Laurel Springs, New Jersey
Current Conditions -  °F | °C
As of 2:54 PM on Sunday 25 Jan 2015 (Local Time) from KVAY Reporting Station
Overcast Overcast  
Wind Chill: 39°   Ceiling: 4100
Heat Index: 44°   Visibility: 10mi
Dew Point: 30°   Wind: 9mph
Humidity: 58%   Direction: 300°WNW
Pressure: 29.82"   Gusts: NA
Location:  39.8055°N, 74.9997°W
Report Text: KVAY 251954Z AUTO 30008KT 10SM OVC041 07/M01 A2982 RMK AO2 SLP097 T00671011
Loading
Personal Weather Stations






























Interactive Weather Map New forecast layout! Learn more

10-Day Weather Forecast

Advertisements
Track Severe Weather on mobile